Time;durP1;ratioP1;P1;durP2;ratioP2;P2;SDS_P1;SDS_P2;PMS_P1;PMS_P2;Temp;Humidity;BMP_temperature;BMP_pressure;BME280_temperature;BME280_humidity;BME280_pressure;Samples;Min_cycle;Max_cycle;Signal;HPM_P1;HPM_P2
2023/09/28 02:16:12;;;;;;;7.10;4.40;;;;;;;;;;639763;23;20301;-83
2023/09/28 02:18:41;;;;;;;8.35;4.20;;;;;;;;;;4943243;28;20039;-87
2023/09/28 02:21:12;;;;;;;8.37;4.60;;;;;;;;;;4949012;28;20031;-88
2023/09/28 02:23:38;;;;;;;7.57;4.53;;;;;;;;;;4928051;28;20299;-90
2023/09/28 02:26:08;;;;;;;7.47;4.68;;;;;;;;;;4945870;28;20039;-87
2023/09/28 02:28:34;;;;;;;9.80;4.80;;;;;;;;;;4920234;28;20104;-88
2023/09/28 02:31:10;;;;;;;6.43;4.00;;;15.90;99.90;;;;;;4922305;28;20044;-88
2023/09/28 02:33:36;;;;;;;5.57;3.88;;;;;;;;;;4929222;28;20032;-87
2023/09/28 02:36:02;;;;;;;6.63;4.35;;;;;;;;;;4929768;28;20072;-88
2023/09/28 02:38:29;;;;;;;6.97;4.43;;;15.90;99.90;;;;;;4926886;28;20029;-88
2023/09/28 02:40:54;;;;;;;6.82;4.20;;;;;;;;;;4930597;28;20068;-88
2023/09/28 02:43:20;;;;;;;7.55;4.30;;;;;;;;;;4928947;28;20025;-87
2023/09/28 02:45:47;;;;;;;7.50;4.43;;;;;;;;;;4934072;28;20027;-89
2023/09/28 02:48:13;;;;;;;6.72;4.13;;;;;;;;;;4928619;28;20020;-87
2023/09/28 02:50:39;;;;;;;8.20;4.00;;;;;;;;;;4938256;28;20071;-85
2023/09/28 02:53:06;;;;;;;7.32;4.13;;;;;;;;;;4924722;28;20020;-87
2023/09/28 02:55:32;;;;;;;7.32;4.30;;;;;;;;;;4928096;28;20035;-87
2023/09/28 02:57:58;;;;;;;6.03;4.25;;;;;;;;;;4925688;28;20016;-86
2023/09/28 03:00:26;;;;;;;8.23;4.40;;;;;;;;;;4928441;28;22055;-90
2023/09/28 03:02:56;;;;;;;5.80;4.15;;;15.80;99.90;;;;;;4930994;28;20032;-90
2023/09/28 03:05:22;;;;;;;5.88;4.00;;;;;;;;;;4926597;28;20017;-87
2023/09/28 03:07:49;;;;;;;8.90;4.68;;;;;;;;;;4944167;28;20028;-91
2023/09/28 03:10:15;;;;;;;6.78;4.40;;;;;;;;;;4925250;28;20028;-89
2023/09/28 03:12:44;;;;;;;6.63;4.45;;;;;;;;;;4929237;28;21560;-89
2023/09/28 03:15:10;;;;;;;5.55;4.25;;;;;;;;;;4926274;28;20048;-87
2023/09/28 03:17:40;;;;;;;7.72;4.30;;;;;;;;;;4927815;28;20016;-87
2023/09/28 03:20:17;;;;;;;5.32;4.10;;;;;;;;;;4945413;28;20056;-90
2023/09/28 03:22:44;;;;;;;6.35;4.18;;;15.70;99.90;;;;;;4930961;28;20023;-88
2023/09/28 03:25:16;;;;;;;7.85;4.60;;;;;;;;;;4946370;28;20071;-87
2023/09/28 03:27:43;;;;;;;7.38;5.10;;;;;;;;;;4929024;28;20020;-86
2023/09/28 03:30:11;;;;;;;9.07;5.82;;;;;;;;;;4928753;28;20067;-86
2023/09/28 03:32:38;;;;;;;6.35;4.65;;;15.50;99.90;;;;;;4930142;28;20060;-89
2023/09/28 03:35:05;;;;;;;11.38;8.65;;;15.50;99.90;;;;;;4932977;28;21192;-88
2023/09/28 03:37:31;;;;;;;9.90;5.57;;;;;;;;;;4934192;28;20016;-87
2023/09/28 03:40:00;;;;;;;8.02;5.05;;;;;;;;;;4942752;28;20021;-87
2023/09/28 03:42:26;;;;;;;8.95;5.63;;;;;;;;;;4944738;28;20021;-88
2023/09/28 03:44:52;;;;;;;9.13;5.70;;;;;;;;;;4918125;29;20064;-88
2023/09/28 03:47:19;;;;;;;10.07;5.28;;;;;;;;;;4922979;28;20031;-87
2023/09/28 03:49:45;;;;;;;10.68;5.03;;;;;;;;;;4920278;28;20147;-89
2023/09/28 03:52:11;;;;;;;9.10;5.50;;;;;;;;;;4938105;28;20043;-89
2023/09/28 03:54:37;;;;;;;7.65;4.82;;;;;;;;;;4940311;28;20024;-88
2023/09/28 03:57:04;;;;;;;9.82;5.20;;;;;;;;;;4918546;28;21242;-88
2023/09/28 03:59:30;;;;;;;7.82;5.30;;;;;;;;;;4922641;28;20017;-90
2023/09/28 04:01:56;;;;;;;11.55;5.00;;;;;;;;;;4936665;28;20016;-87
2023/09/28 04:04:22;;;;;;;7.38;4.72;;;;;;;;;;4925807;28;20028;-90
2023/09/28 04:06:49;;;;;;;8.88;5.22;;;;;;;;;;4927164;28;20036;-89
2023/09/28 04:09:15;;;;;;;7.47;4.65;;;;;;;;;;4927385;28;20091;-88
2023/09/28 04:11:42;;;;;;;10.27;5.18;;;;;;;;;;4922141;28;20035;-86
2023/09/28 04:14:08;;;;;;;7.45;4.57;;;;;;;;;;4926958;28;20048;-89
2023/09/28 04:16:34;;;;;;;10.57;5.28;;;;;;;;;;4919575;28;20039;-88
2023/09/28 04:19:00;;;;;;;10.13;5.78;;;;;;;;;;4932837;28;20060;-89
2023/09/28 04:21:26;;;;;;;10.80;5.47;;;;;;;;;;4946406;28;20033;-87
2023/09/28 04:23:54;;;;;;;8.60;5.38;;;;;;;;;;4932370;28;20039;-88
2023/09/28 04:26:20;;;;;;;8.65;4.90;;;;;;;;;;4933336;28;20017;-88
2023/09/28 04:28:46;;;;;;;10.07;5.07;;;;;;;;;;4930128;28;20016;-87
2023/09/28 04:31:12;;;;;;;8.32;4.90;;;;;;;;;;4927477;28;20036;-89
2023/09/28 04:33:38;;;;;;;9.77;5.40;;;;;;;;;;4926976;28;20052;-89
2023/09/28 04:36:04;;;;;;;9.68;5.20;;;;;;;;;;4927035;28;20048;-88
2023/09/28 04:38:30;;;;;;;10.70;5.10;;;;;;;;;;4930579;28;20028;-86
2023/09/28 04:40:56;;;;;;;10.27;6.00;;;;;;;;;;4931602;28;20031;-87
2023/09/28 04:43:22;;;;;;;8.32;5.85;;;;;;;;;;4938611;28;20052;-86
2023/09/28 04:45:48;;;;;;;7.28;5.20;;;;;;;;;;4932225;28;20024;-89
2023/09/28 04:48:15;;;;;;;7.82;5.57;;;;;;;;;;4947895;28;20040;-88
2023/09/28 04:50:42;;;;;;;9.18;6.00;;;;;;;;;;4924503;28;20066;-85
2023/09/28 04:53:08;;;;;;;11.82;5.68;;;;;;;;;;4945333;28;20020;-88
2023/09/28 04:55:34;;;;;;;8.32;5.70;;;;;;;;;;4922283;29;20035;-89
2023/09/28 04:58:01;;;;;;;10.70;6.18;;;;;;;;;;4926421;28;20032;-88
2023/09/28 05:00:27;;;;;;;10.32;6.10;;;;;;;;;;4927877;28;20531;-90
2023/09/28 05:02:53;;;;;;;10.70;6.40;;;;;;;;;;4923459;28;20033;-91
2023/09/28 05:05:19;;;;;;;9.80;6.00;;;;;;;;;;4928170;28;20033;-88
2023/09/28 05:07:45;;;;;;;15.43;8.68;;;;;;;;;;4942827;28;20056;-88
2023/09/28 05:10:11;;;;;;;9.18;6.20;;;;;;;;;;4922365;29;20023;-87
2023/09/28 05:12:38;;;;;;;10.38;5.65;;;;;;;;;;4936607;29;20039;-89
2023/09/28 05:15:04;;;;;;;8.23;4.70;;;;;;;;;;4928483;28;20053;-87
2023/09/28 05:17:31;;;;;;;9.45;4.93;;;;;;;;;;4928834;28;20020;-90
2023/09/28 05:20:08;;;;;;;8.88;5.75;;;;;;;;;;4929898;28;20017;-89
2023/09/28 05:22:35;;;;;;;9.63;5.63;;;;;;;;;;4925510;28;20091;-91
2023/09/28 05:25:02;;;;;;;9.10;5.72;;;;;;;;;;4921779;28;20020;-88
2023/09/28 05:27:28;;;;;;;10.52;5.97;;;;;;;;;;4932054;28;20032;-88
2023/09/28 05:29:55;;;;;;;11.30;6.28;;;;;;;;;;4931515;28;20039;-89
2023/09/28 05:32:21;;;;;;;13.18;5.43;;;;;;;;;;4941599;28;20012;-88
2023/09/28 05:34:48;;;;;;;10.90;5.90;;;;;;;;;;4958760;23;20049;-87
2023/09/28 05:37:14;;;;;;;12.73;6.20;;;;;;;;;;4936449;29;20028;-88
2023/09/28 05:39:40;;;;;;;7.63;5.03;;;;;;;;;;4942838;28;20027;-88
2023/09/28 05:42:07;;;;;;;8.88;5.28;;;;;;;;;;4941685;29;20055;-89
2023/09/28 05:44:33;;;;;;;10.07;5.60;;;;;;;;;;4955326;28;20036;-87
2023/09/28 05:46:59;;;;;;;8.27;5.53;;;;;;;;;;4940272;29;20573;-89
2023/09/28 05:49:26;;;;;;;9.35;5.45;;;;;;;;;;4954179;28;20031;-90
2023/09/28 05:51:53;;;;;;;10.43;5.30;;;;;;;;;;4934456;29;20894;-87
2023/09/28 05:54:19;;;;;;;12.18;5.78;;;;;;;;;;4953503;28;20024;-87
2023/09/28 05:56:45;;;;;;;12.65;5.93;;;;;;;;;;4937936;29;20031;-87
2023/09/28 05:59:11;;;;;;;9.13;5.85;;;;;;;;;;4952248;28;20029;-88
2023/09/28 06:01:37;;;;;;;8.57;5.47;;;;;;;;;;4938860;29;20038;-89
2023/09/28 06:04:04;;;;;;;11.30;5.80;;;;;;;;;;4956065;28;20090;-87
2023/09/28 06:06:30;;;;;;;9.27;5.88;;;;;;;;;;4955426;28;20040;-88
2023/09/28 06:08:56;;;;;;;8.18;5.57;;;;;;;;;;4962053;29;20028;-90
2023/09/28 06:11:23;;;;;;;9.82;5.65;;;;;;;;;;4954780;28;20086;-88
2023/09/28 06:13:49;;;;;;;9.88;6.13;;;;;;;;;;4968558;28;20039;-88
2023/09/28 06:16:15;;;;;;;8.65;5.43;;;;;;;;;;4955682;28;20016;-89
2023/09/28 06:18:42;;;;;;;11.88;5.40;;;;;;;;;;4970573;28;20035;-89
2023/09/28 06:21:08;;;;;;;9.13;4.93;;;;;;;;;;4953392;28;20083;-89
2023/09/28 06:23:36;;;;;;;14.60;5.70;;;;;;;;;;4967844;28;20031;-89
2023/09/28 06:26:02;;;;;;;16.50;5.88;;;;;;;;;;4971798;28;20012;-87
2023/09/28 06:28:29;;;;;;;11.73;5.65;;;;;;;;;;4956169;28;20617;-89
2023/09/28 07:14:55;;;;;;;8.77;5.57;;;;;;;;;;4931942;29;20043;-89
2023/09/28 07:17:21;;;;;;;10.48;5.65;;;;;;;;;;4955044;28;20027;-85
2023/09/28 07:19:48;;;;;;;10.38;5.53;;;;;;;;;;4920958;29;20508;-86
2023/09/28 07:22:15;;;;;;;9.30;5.13;;;;;;;;;;4935649;29;20028;-87
2023/09/28 07:24:41;;;;;;;9.90;7.47;;;;;;;;;;4918804;29;20064;-86
2023/09/28 07:27:07;;;;;;;9.45;5.10;;;;;;;;;;4922772;29;20040;-86
2023/09/28 07:29:33;;;;;;;11.43;5.18;;;;;;;;;;4921819;29;20032;-88
2023/09/28 07:31:59;;;;;;;10.68;5.07;;;;;;;;;;4921620;29;20119;-85
2023/09/28 07:34:25;;;;;;;12.45;5.38;;;;;;;;;;4920501;29;20036;-86
2023/09/28 07:36:51;;;;;;;10.27;5.07;;;;;;;;;;4935027;29;20036;-88
2023/09/28 07:39:17;;;;;;;10.60;5.05;;;;;;;;;;4928445;29;20096;-86
2023/09/28 07:41:45;;;;;;;8.82;4.63;;;;;;;;;;4924441;29;20036;-87
2023/09/28 07:44:11;;;;;;;10.90;4.68;;;;;;;;;;4938968;29;20036;-87
2023/09/28 07:46:37;;;;;;;6.47;4.47;;;;;;;;;;4929748;29;20040;-85
2023/09/28 07:49:03;;;;;;;9.05;4.65;;;;;;;;;;4931677;29;20139;-86
2023/09/28 07:51:32;;;;;;;9.55;4.80;;;;;;;;;;4939891;29;20073;-85
2023/09/28 07:53:58;;;;;;;7.93;4.55;;;;;;;;;;4920836;29;20032;-86
2023/09/28 07:56:24;;;;;;;11.15;5.40;;;;;;;;;;4921047;29;20024;-88
2023/09/28 07:58:50;;;;;;;11.40;5.57;;;;;;;;;;4921179;29;20052;-86
2023/09/28 08:01:17;;;;;;;9.57;4.90;;;;;;;;;;4919107;29;20027;-87
2023/09/28 08:03:43;;;;;;;8.73;4.80;;;;;;;;;;4935100;29;20031;-87
2023/09/28 08:06:10;;;;;;;8.23;4.22;;;;;;;;;;4923894;29;20024;-86
2023/09/28 08:08:37;;;;;;;10.05;5.32;;;;;;;;;;4920599;29;20095;-87
2023/09/28 08:11:03;;;;;;;9.38;4.13;;;;;;;;;;4923662;29;20103;-86
2023/09/28 08:13:29;;;;;;;8.77;4.57;;;;;;;;;;4938142;29;20048;-87
2023/09/28 08:15:55;;;;;;;9.65;4.85;;;;;;;;;;4926451;29;20024;-90
2023/09/28 08:18:22;;;;;;;7.82;4.25;;;;;;;;;;4914129;29;20436;-89
2023/09/28 08:20:48;;;;;;;10.15;3.97;;;;;;;;;;4950736;28;20043;-89
2023/09/28 08:23:14;;;;;;;6.13;3.55;;;;;;;;;;4959132;28;20036;-90
2023/09/28 08:25:41;;;;;;;6.80;4.30;;;;;;;;;;4950167;29;20037;-88
2023/09/28 08:28:07;;;;;;;7.60;3.70;;;;;;;;;;4953470;28;20109;-88
2023/09/28 08:30:34;;;;;;;7.15;3.80;;;;;;;;;;4944901;29;20084;-90
2023/09/28 08:33:00;;;;;;;9.70;4.07;;;;;;;;;;4938741;29;20024;-89
2023/09/28 08:35:26;;;;;;;6.70;4.45;;;;;;;;;;4937691;29;20024;-88
2023/09/28 08:37:52;;;;;;;7.45;3.83;;;;;;;;;;4935766;29;20366;-89
2023/09/28 08:40:20;;;;;;;10.45;4.70;;;;;;;;;;4935749;29;20613;-87
2023/09/28 08:42:47;;;;;;;8.90;4.07;;;;;;;;;;4919492;29;20027;-89
2023/09/28 08:45:14;;;;;;;7.80;4.25;;;;;;;;;;4933000;29;20123;-88
2023/09/28 08:47:49;;;;;;;7.03;3.90;;;;;;;;;;4922051;29;20038;-88
2023/09/28 08:50:18;;;;;;;5.50;3.70;;;;;;;;;;4922334;29;20035;-89
2023/09/28 08:52:44;;;;;;;7.40;4.35;;;;;;;;;;4940648;29;20437;-88
2023/09/28 08:55:12;;;;;;;6.22;4.25;;;;;;;;;;4922233;29;20020;-89
2023/09/28 08:57:38;;;;;;;8.70;4.13;;;;;;;;;;4922174;29;20024;-90
2023/09/28 09:00:09;;;;;;;8.05;4.20;;;;;;;;;;4937397;29;20028;-88
2023/09/28 09:02:35;;;;;;;6.50;4.25;;;;;;;;;;4941285;29;20032;-87
2023/09/28 09:05:03;;;;;;;7.72;3.97;;;;;;;;;;4926553;29;20028;-87
2023/09/28 09:07:29;;;;;;;8.13;4.00;;;;;;;;;;4922030;29;20032;-88
2023/09/28 09:09:57;;;;;;;7.57;3.88;;;;;;;;;;4923156;29;20043;-86
2023/09/28 09:12:24;;;;;;;7.55;3.95;;;;;;;;;;4939780;29;20020;-86
2023/09/28 09:14:50;;;;;;;13.98;4.80;;;;;;;;;;4938228;29;20035;-87
2023/09/28 09:17:16;;;;;;;6.82;3.67;;;;;;;;;;4944348;29;20050;-85
2023/09/28 09:19:42;;;;;;;7.95;3.70;;;;;;;;;;4940921;29;20024;-86
2023/09/28 09:22:08;;;;;;;6.53;3.70;;;;;;;;;;4925138;29;20032;-85
2023/09/28 09:24:34;;;;;;;9.27;3.90;;;;;;;;;;4925395;29;20054;-87
2023/09/28 09:27:01;;;;;;;7.60;3.95;;;;;;;;;;4928846;29;20032;-87
2023/09/28 09:29:27;;;;;;;9.32;4.00;;;;;;;;;;4940040;29;20036;-87
2023/09/28 09:31:53;;;;;;;7.13;3.28;;;;;;;;;;4920290;29;20020;-86
2023/09/28 09:34:21;;;;;;;6.90;3.92;;;;;;;;;;4925130;29;20032;-86
2023/09/28 09:36:56;;;;;;;5.22;3.13;;;;;;;;;;4924039;29;20028;-87
2023/09/28 09:39:23;;;;;;;4.95;3.15;;;;;;;;;;4936750;29;20084;-87
2023/09/28 09:41:50;;;;;;;7.93;4.93;;;;;;;;;;4925570;29;20028;-88
2023/09/28 09:44:22;;;;;;;6.82;3.55;;;;;;;;;;4923413;29;20038;-89
2023/09/28 09:46:56;;;;;;;7.88;3.70;;;;;;;;;;4926222;29;20027;-86
2023/09/28 09:49:24;;;;;;;7.38;3.35;;;;;;;;;;4940207;29;21041;-89
2023/09/28 09:51:59;;;;;;;6.93;3.78;;;;;;;;;;4925802;29;20031;-87
2023/09/28 09:54:26;;;;;;;7.07;3.47;;;;;;;;;;4928040;29;20027;-87
2023/09/28 09:56:53;;;;;;;7.78;4.07;;;;;;;;;;4927835;29;20533;-89
2023/09/28 09:59:21;;;;;;;12.50;3.22;;;;;;;;;;4925284;29;20020;-88
2023/09/28 10:01:48;;;;;;;7.72;3.15;;;;;;;;;;4940209;29;20028;-87
2023/09/28 10:04:22;;;;;;;5.70;3.20;;;;;;;;;;4925058;29;20046;-88
2023/09/28 10:06:51;;;;;;;8.80;3.20;;;;;;;;;;4920520;29;20080;-90
2023/09/28 10:09:19;;;;;;;6.20;3.03;;;;;;;;;;4926680;29;20023;-88
2023/09/28 10:11:47;;;;;;;6.20;3.00;;;;;;;;;;4935648;29;20031;-88
2023/09/28 10:14:16;;;;;;;8.93;4.07;;;;;;;;;;4924307;29;20467;-89
2023/09/28 10:16:42;;;;;;;8.50;2.97;;;;;;;;;;4923823;29;20051;-89
2023/09/28 10:19:09;;;;;;;6.63;3.45;;;;;;;;;;4934536;29;20040;-89
2023/09/28 10:21:37;;;;;;;6.53;3.05;;;;;;;;;;4937032;29;20036;-89
2023/09/28 10:24:13;;;;;;;5.32;3.00;;;;;;;;;;4939470;29;20065;-89
2023/09/28 10:26:43;;;;;;;9.27;3.65;;;;;;;;;;4926364;29;20028;-88
2023/09/28 10:29:12;;;;;;;4.80;2.67;;;;;;;;;;4938635;29;20025;-87
2023/09/28 10:31:42;;;;;;;5.45;3.17;;;;;;;;;;4939693;29;20047;-89
2023/09/28 10:34:09;;;;;;;6.25;3.08;;;;;;;;;;4932836;29;20024;-88
2023/09/28 10:36:39;;;;;;;6.97;3.28;;;;;;;;;;4923315;29;20043;-89
2023/09/28 10:39:09;;;;;;;6.20;2.97;;;;;;;;;;4923529;29;20048;-88
2023/09/28 10:41:39;;;;;;;6.60;3.38;;;;;;;;;;4920736;29;20058;-88
2023/09/28 10:44:16;;;;;;;7.10;2.90;;;;;;;;;;4921815;29;20024;-88
2023/09/28 10:46:42;;;;;;;7.57;3.30;;;;;;;;;;4923501;29;20417;-88
2023/09/28 10:49:08;;;;;;;6.97;3.35;;;;;;;;;;4923252;29;20040;-88
2023/09/28 10:51:34;;;;;;;6.32;3.00;;;;;;;;;;4922908;29;20020;-88
2023/09/28 10:54:05;;;;;;;5.45;2.83;;;;;;;;;;4924422;29;20177;-89
2023/09/28 10:56:31;;;;;;;9.63;3.28;;;;;;;;;;4924072;29;20101;-89
2023/09/28 10:58:57;;;;;;;6.13;3.25;;;;;;;;;;4922312;29;20554;-88
2023/09/28 11:01:24;;;;;;;8.73;3.28;;;;;;;;;;4941205;29;20024;-89
2023/09/28 11:03:50;;;;;;;5.78;3.30;;;;;;;;;;4924682;29;20087;-87
2023/09/28 11:06:18;;;;;;;8.13;3.30;;;;;;;;;;4927054;29;20028;-88
2023/09/28 11:08:44;;;;;;;5.85;3.40;;;;;;;;;;4922268;29;20040;-88
2023/09/28 11:11:10;;;;;;;6.38;3.00;;;;;;;;;;4926564;29;20039;-89
2023/09/28 11:13:36;;;;;;;7.40;3.40;;;;;;;;;;4936371;29;20028;-87
2023/09/28 11:16:02;;;;;;;8.23;2.90;;;;;;;;;;4923472;29;20028;-89
2023/09/28 11:18:28;;;;;;;5.68;3.35;;;;;;;;;;4922210;29;20068;-87
2023/09/28 11:20:58;;;;;;;6.85;3.35;;;;;;;;;;4943229;29;20027;-89
2023/09/28 11:23:24;;;;;;;7.80;3.30;;;;;;;;;;4925062;29;20020;-88
2023/09/28 11:25:51;;;;;;;8.48;3.72;;;;;;;;;;4940218;29;20063;-88
2023/09/28 11:28:17;;;;;;;6.80;3.47;;;;;;;;;;4924978;29;20032;-89
2023/09/28 11:30:43;;;;;;;9.32;3.95;;;;;;;;;;4925337;29;20032;-88
2023/09/28 11:33:09;;;;;;;6.07;3.22;;;;;;;;;;4933329;29;20028;-88
2023/09/28 11:35:38;;;;;;;9.32;4.38;;;;;;;;;;4928450;29;20099;-86
2023/09/28 11:38:10;;;;;;;4.18;3.10;;;;;;;;;;4942051;29;20497;-87
2023/09/28 11:40:39;;;;;;;6.43;2.80;;;;;;;;;;4940951;29;20040;-89
2023/09/28 11:43:05;;;;;;;6.00;2.70;;;;;;;;;;4941638;29;20030;-89
2023/09/28 11:45:33;;;;;;;6.78;3.13;;;;;;;;;;4921112;29;20040;-88
2023/09/28 11:48:06;;;;;;;5.90;2.90;;;;;;;;;;4940917;29;20032;-87
2023/09/28 11:50:33;;;;;;;4.20;2.70;;;;;;;;;;4929113;29;20032;-88
2023/09/28 11:52:59;;;;;;;5.22;2.83;;;;;;;;;;4937250;29;20043;-87
2023/09/28 11:55:26;;;;;;;5.97;3.22;;;;;;;;;;4923265;29;20037;-89
2023/09/28 11:57:57;;;;;;;5.93;2.85;;;;;;;;;;4920386;29;20029;-89
2023/09/28 12:00:24;;;;;;;3.72;2.65;;;;;;;;;;4925728;29;20044;-87
2023/09/28 12:02:50;;;;;;;6.57;3.13;;;;;;;;;;4927231;29;20043;-89
2023/09/28 12:05:17;;;;;;;7.93;2.92;;;;;;;;;;4920345;29;20067;-86
2023/09/28 12:07:43;;;;;;;5.30;2.53;;;;;;;;;;4923629;29;20028;-89
2023/09/28 12:10:17;;;;;;;7.05;2.83;;;;;;;;;;4917548;29;20511;-88
2023/09/28 12:12:44;;;;;;;9.50;3.05;;;;;;;;;;4943041;29;20036;-89
2023/09/28 12:15:10;;;;;;;7.28;2.88;;;;;;;;;;4943249;29;20417;-88
2023/09/28 12:17:40;;;;;;;7.75;2.92;;;;;;;;;;4931191;29;20032;-89
2023/09/28 12:20:12;;;;;;;9.45;2.92;;;;;;;;;;4931950;29;20035;-89
2023/09/28 12:22:38;;;;;;;5.65;2.85;;;;;;;;;;4928195;29;20024;-89
2023/09/28 12:25:05;;;;;;;5.63;3.28;;;;;;;;;;4919182;29;20025;-88
2023/09/28 12:27:35;;;;;;;4.88;3.03;;;;;;;;;;4925949;29;20397;-88
2023/09/28 12:30:02;;;;;;;6.97;3.10;;;;;;;;;;4919875;29;20028;-88
2023/09/28 12:32:29;;;;;;;8.00;3.22;;;;;;;;;;4921236;29;20039;-89
2023/09/28 12:34:55;;;;;;;6.28;3.30;;;;;;;;;;4921288;29;20077;-90
2023/09/28 12:37:21;;;;;;;4.80;2.88;;;;;;;;;;4937618;29;20087;-88
2023/09/28 12:39:48;;;;;;;5.03;2.97;;;;;;;;;;4924184;29;20024;-88
2023/09/28 12:42:17;;;;;;;5.95;3.30;;;;;;;;;;4919075;29;20100;-89
2023/09/28 12:44:43;;;;;;;5.15;2.75;;;;;;;;;;4934332;29;20115;-89
2023/09/28 12:47:11;;;;;;;7.75;2.80;;;;;;;;;;4933535;29;20123;-87
2023/09/28 12:49:37;;;;;;;6.20;3.30;;;;;;;;;;4919511;29;20044;-88
2023/09/28 12:52:04;;;;;;;6.20;2.80;;;;;;;;;;4921465;29;20036;-88
2023/09/28 12:54:30;;;;;;;4.55;2.92;;;;;;;;;;4933822;29;20032;-87
2023/09/28 12:56:56;;;;;;;4.85;2.97;;;;;;;;;;4922027;29;20036;-91
2023/09/28 12:59:22;;;;;;;5.35;3.03;;;;;;;;;;4919631;29;20024;-89
2023/09/28 13:01:48;;;;;;;9.20;2.95;;;;;;;;;;4918295;29;20036;-89
2023/09/28 13:04:15;;;;;;;6.13;3.10;;;;;;;;;;4934676;29;20036;-87
2023/09/28 13:06:41;;;;;;;6.13;3.17;;;;;;;;;;4939992;29;20032;-88
2023/09/28 13:09:07;;;;;;;8.32;3.25;;;;;;;;;;4941796;29;20047;-87
2023/09/28 13:11:34;;;;;;;4.55;2.90;;;;;;;;;;4929972;29;20032;-88
2023/09/28 13:14:00;;;;;;;4.90;2.85;;;;;;;;;;4945949;29;20028;-87
2023/09/28 13:16:28;;;;;;;6.80;2.92;;;;;;;;;;4928977;29;20476;-87
2023/09/28 13:18:55;;;;;;;4.15;2.78;;;;;;;;;;4941022;29;20087;-87
2023/09/28 13:21:24;;;;;;;4.30;2.47;;;;;;;;;;4939940;29;20032;-89
2023/09/28 13:23:50;;;;;;;5.03;2.65;;;;;;;;;;4925851;29;20028;-89
2023/09/28 13:26:16;;;;;;;11.15;3.30;;;;;;;;;;4947971;29;20040;-89
2023/09/28 13:28:44;;;;;;;6.45;3.00;;;;;;;;;;4941406;29;20082;-88
2023/09/28 13:31:10;;;;;;;5.22;3.25;;;;;;;;;;4930124;29;20028;-87
2023/09/28 13:33:36;;;;;;;6.38;2.85;;;;;;;;;;4927143;29;20032;-89
2023/09/28 13:36:06;;;;;;;5.38;3.03;;;;;;;;;;4927490;29;20028;-88
2023/09/28 13:38:35;;;;;;;3.92;2.30;;;;;;;;;;4935349;29;20066;-89
2023/09/28 13:41:02;;;;;;;4.30;2.75;;;;;;;;;;4945193;28;20009;-90
2023/09/28 13:43:28;;;;;;;9.43;3.10;;;;;;;;;;4941955;28;20036;-89
2023/09/28 13:45:54;;;;;;;8.88;3.17;;;;;;;;;;4939050;28;20048;-88
2023/09/28 13:48:21;;;;;;;4.35;2.75;;;;;;;;;;4926044;29;20035;-88
2023/09/28 13:50:47;;;;;;;7.30;3.30;;;;;;;;;;4927118;29;20028;-88
2023/09/28 13:53:14;;;;;;;5.13;2.60;;;;;;;;;;4925036;29;20029;-88
2023/09/28 13:55:40;;;;;;;5.32;2.83;;;;;;;;;;4924702;29;20036;-89
2023/09/28 13:58:08;;;;;;;8.35;2.67;;;;;;;;;;4927160;29;20052;-87
2023/09/28 14:00:39;;;;;;;4.43;2.80;;;;;;;;;;4925570;29;20032;-89
2023/09/28 14:03:05;;;;;;;5.15;2.90;;;;;;;;;;4923528;29;20044;-87
2023/09/28 14:05:34;;;;;;;6.85;2.70;;;;;;;;;;4937274;29;20032;-87
2023/09/28 14:08:01;;;;;;;5.53;3.08;;;;;;;;;;4938643;29;20031;-88
2023/09/28 14:10:27;;;;;;;5.22;2.70;;;;;;;;;;4919631;29;20116;-89
2023/09/28 14:12:54;;;;;;;7.22;3.35;;;;;;;;;;4922302;29;20035;-88
2023/09/28 14:15:20;;;;;;;5.57;2.75;;;;;;;;;;4923151;29;20060;-89
2023/09/28 14:17:49;;;;;;;4.78;2.83;;;;;;;;;;4937958;29;20040;-89
2023/09/28 14:20:15;;;;;;;5.53;2.77;;;;;;;;;;4921315;29;20028;-87
2023/09/28 14:22:47;;;;;;;5.88;3.22;;;;;;;;;;4939812;29;20307;-89
2023/09/28 14:25:13;;;;;;;10.20;2.95;;;;;;;;;;4921585;29;20028;-89
2023/09/28 14:27:40;;;;;;;4.00;2.60;;;;;;;;;;4922968;29;20849;-89
2023/09/28 14:30:06;;;;;;;5.75;2.90;;;;;;;;;;4925167;29;20188;-88
2023/09/28 14:32:34;;;;;;;9.73;5.90;;;;;;;;;;4933458;29;20042;-89
2023/09/28 14:35:22;;;;;;;6.80;2.58;;;;;;;;;;4923786;29;20020;-86
2023/09/28 14:37:50;;;;;;;4.43;2.80;;;;;;;;;;4921852;29;20037;-85
2023/09/28 14:40:19;;;;;;;6.78;2.78;;;;;;;;;;4931776;29;20051;-86
2023/09/28 15:15:10;;;;;;;;;;;25.30;99.90;;;;;;4921859;29;20055;-82
2023/09/28 15:17:36;;;;;;;11.40;3.20;;;25.20;99.90;;;;;;4913974;29;19911;-81
2023/09/28 15:20:05;;;;;;;7.72;3.03;;;25.20;99.90;;;;;;4923227;29;20043;-81
2023/09/28 15:22:32;;;;;;;10.68;3.05;;;25.10;99.90;;;;;;4917307;29;20043;-82
2023/09/28 15:24:58;;;;;;;6.45;2.92;;;;;;;;;;4914246;29;20139;-82
2023/09/28 15:27:24;;;;;;;8.20;2.88;;;;;;;;;;4931896;29;20055;-82
2023/09/28 15:29:50;;;;;;;4.78;2.50;;;;;;;;;;4914458;29;20032;-80
2023/09/28 15:32:16;;;;;;;7.32;3.20;;;;;;;;;;4913853;29;20032;-82
2023/09/28 15:34:43;;;;;;;7.30;3.13;;;;;;;;;;4910708;29;20037;-81
2023/09/28 15:37:11;;;;;;;9.52;3.08;;;;;;;;;;4911790;29;20474;-81
2023/09/28 15:39:37;;;;;;;6.75;3.20;;;;;;;;;;4909880;29;20043;-82
2023/09/28 15:42:04;;;;;;;10.52;3.50;;;;;;;;;;4913080;29;20028;-82
2023/09/28 15:44:33;;;;;;;6.53;3.30;;;24.80;99.90;;;;;;4912224;29;20039;-80
2023/09/28 15:46:59;;;;;;;6.70;3.00;;;;;;;;;;4925060;29;20088;-82
2023/09/28 15:49:25;;;;;;;5.72;3.20;;;24.70;99.90;;;;;;4914155;29;20023;-82
2023/09/28 15:51:51;;;;;;;6.35;3.50;;;;;;;;;;4924418;29;20024;-84
2023/09/28 15:54:17;;;;;;;6.82;3.55;;;;;;;;;;4910043;29;20031;-81
2023/09/28 15:56:43;;;;;;;9.02;3.85;;;;;;;;;;4926449;29;20175;-82
2023/09/28 15:59:09;;;;;;;6.80;3.50;;;;;;;;;;4913510;29;20028;-82
2023/09/28 16:01:37;;;;;;;5.57;3.17;;;24.40;99.90;;;;;;4919151;29;20036;-82
2023/09/28 16:04:03;;;;;;;6.43;4.10;;;;;;;;;;4917182;29;20044;-81
2023/09/28 16:06:33;;;;;;;9.00;3.70;;;;;;;;;;4916592;29;20025;-81
2023/09/28 16:08:59;;;;;;;8.65;3.60;;;;;;;;;;4915908;29;20087;-83
2023/09/28 16:11:26;;;;;;;5.90;3.38;;;;;;;;;;4917471;29;20028;-82
2023/09/28 16:13:52;;;;;;;5.32;3.30;;;;;;;;;;4916630;29;20440;-83
2023/09/28 16:16:20;;;;;;;6.95;3.88;;;;;;;;;;4936342;29;20047;-83
2023/09/28 16:18:46;;;;;;;7.85;3.83;;;;;;;;;;4921801;29;20032;-80
2023/09/28 16:21:11;;;;;;;6.72;3.78;;;23.60;99.90;;;;;;4930775;28;20012;-82
2023/09/28 16:23:37;;;;;;;6.82;3.97;;;23.60;99.90;;;;;;4934196;28;20365;-81
2023/09/28 16:26:06;;;;;;;6.53;3.65;;;;;;;;;;4932118;29;20080;-81
2023/09/28 16:28:32;;;;;;;6.80;3.75;;;;;;;;;;4927058;29;20092;-81
2023/09/28 16:30:58;;;;;;;5.93;3.63;;;;;;;;;;4931954;28;20048;-80
2023/09/28 16:33:24;;;;;;;6.90;3.80;;;;;;;;;;4922841;28;20032;-81
2023/09/28 16:35:50;;;;;;;5.50;3.47;;;;;;;;;;4912940;29;20070;-83
2023/09/28 16:38:16;;;;;;;5.53;3.75;;;;;;;;;;4903839;29;20053;-82
2023/09/28 16:40:42;;;;;;;8.50;4.78;;;;;;;;;;4917970;29;20028;-83
2023/09/28 16:43:08;;;;;;;7.85;4.50;;;;;;;;;;4921148;29;20040;-81
2023/09/28 16:45:34;;;;;;;8.90;5.60;;;;;;;;;;4915736;29;20150;-83
2023/09/28 16:48:00;;;;;;;10.70;4.47;;;;;;;;;;4918884;29;20040;-83
2023/09/28 16:50:28;;;;;;;10.70;4.53;;;22.90;99.90;;;;;;4936315;29;20043;-82
2023/09/28 16:52:54;;;;;;;7.78;5.38;;;;;;;;;;4918850;29;20054;-81
2023/09/28 16:55:20;;;;;;;12.77;5.20;;;;;;;;;;4919010;29;20033;-83
2023/09/28 16:57:46;;;;;;;11.00;5.88;;;;;;;;;;4920834;29;20108;-82
2023/09/28 17:00:12;;;;;;;7.18;4.68;;;22.80;99.90;;;;;;4914189;29;20955;-83
2023/09/28 17:02:38;;;;;;;8.65;5.00;;;;;;;;;;4918831;29;20028;-81
2023/09/28 17:05:05;;;;;;;11.07;5.57;;;;;;;;;;4919970;29;20032;-82
2023/09/28 17:07:31;;;;;;;7.75;4.00;;;;;;;;;;4918748;29;20024;-82
2023/09/28 17:09:57;;;;;;;8.65;4.00;;;;;;;;;;4918016;29;20063;-82
2023/09/28 17:12:23;;;;;;;7.50;3.50;;;;;;;;;;4915450;29;20036;-80
2023/09/28 17:14:50;;;;;;;7.72;3.80;;;;;;;;;;4915876;29;20052;-81
2023/09/28 17:17:15;;;;;;;7.45;3.35;;;;;;;;;;4919263;29;20051;-82
2023/09/28 17:19:43;;;;;;;7.68;3.97;;;;;;;;;;4918791;29;20747;-81
2023/09/28 17:22:09;;;;;;;7.95;3.78;;;;;;;;;;4920875;29;20656;-81
2023/09/28 17:24:35;;;;;;;6.43;3.58;;;;;;;;;;4939181;29;20035;-84
2023/09/28 17:27:02;;;;;;;6.50;3.67;;;;;;;;;;4922565;29;20127;-83
2023/09/28 17:29:28;;;;;;;6.38;3.42;;;;;;;;;;4923346;29;20404;-82
2023/09/28 17:31:54;;;;;;;7.25;3.60;;;;;;;;;;4916199;29;20032;-83
2023/09/28 17:34:20;;;;;;;9.25;3.47;;;;;;;;;;4916396;29;20149;-83
2023/09/28 17:36:47;;;;;;;10.13;4.43;;;;;;;;;;4938840;29;20024;-81
2023/09/28 17:39:13;;;;;;;7.45;3.67;;;;;;;;;;4921231;29;20024;-81
2023/09/28 17:41:39;;;;;;;9.02;3.92;;;;;;;;;;4921653;29;20043;-82
2023/09/28 17:44:05;;;;;;;5.55;3.90;;;;;;;;;;4923816;29;20031;-82
2023/09/28 17:46:31;;;;;;;8.65;4.18;;;;;;;;;;4926755;29;20497;-80
2023/09/28 17:48:57;;;;;;;6.32;3.58;;;;;;;;;;4923777;29;20485;-79
2023/09/28 17:51:25;;;;;;;8.02;4.28;;;;;;;;;;4923233;29;20063;-81
2023/09/28 17:53:52;;;;;;;7.20;3.53;;;;;;;;;;4940284;28;20299;-81
2023/09/28 17:56:19;;;;;;;7.70;3.75;;;;;;;;;;4918597;29;20038;-80
2023/09/28 17:58:46;;;;;;;8.60;4.18;;;;;;;;;;4920825;29;20023;-83
2023/09/28 18:01:12;;;;;;;5.47;3.90;;;;;;;;;;4917765;29;20034;-81
2023/09/28 18:03:38;;;;;;;7.65;3.97;;;;;;;;;;4921093;29;20040;-81
2023/09/28 18:06:05;;;;;;;6.75;4.00;;;;;;;;;;4939325;29;20036;-82